FBSK/GBE METAR and TAF weather

Enter ICAO airport designator
Station Type Date Time Source
FBSK METAR 2021/07/30 23:00 UTC NOAA

FBSK 302300Z 12006KT CAVOK 09/M04 Q1034 NOSIG


Station Type Date Time Source
FBSK Decoded METAR 2021/07/30 23:00 UTC NOAA

Seretse Khama International Airport, Botswana (FBSK) 24-13S 025-55E 1005M
Jul 30, 2021 - 07:00 PM EDT / 2021.07.30 2300 UTC
Wind: from the ESE (120 degrees) at 7 MPH (6 KT):0
Visibility: greater than 7 mile(s):0
Temperature: 48 F (9 C)
Dew Point: 24 F (-4 C)
Relative Humidity: 39%
Pressure (altimeter): 30.53 in. Hg (1034 hPa)
ob: FBSK 302300Z 12006KT CAVOK 09/M04 Q1034 NOSIG
cycle: 23

Station Type Date Time Source
FBSK TAF 2021/07/30 18:09 UTC NOAA

TAF TAF FBSK 301500Z 3018/3124 04010KT CAVOK

Example: see airport list